Time;durP1;ratioP1;P1;durP2;ratioP2;P2;SDS_P1;SDS_P2;PMS_P1;PMS_P2;Temp;Humidity;BMP_temperature;BMP_pressure;BME280_temperature;BME280_humidity;BME280_pressure;Samples;Min_cycle;Max_cycle;Signal;HPM_P1;HPM_P2
2022/05/18 00:01:41;;;;;;;0.10;0.10;;;;;;;13.46;100.00;99800.22;7395460;19;20023;-61
2022/05/18 00:04:07;;;;;;;0.20;0.20;;;;;;;13.38;100.00;99802.69;7393345;19;20011;-61
2022/05/18 00:06:34;;;;;;;0.68;0.47;;;;;;;13.42;100.00;99802.47;7392696;19;20403;-61
2022/05/18 00:09:00;;;;;;;5.05;0.30;;;;;;;13.36;100.00;99799.63;7393182;19;20015;-61
2022/05/18 00:11:26;;;;;;;0.30;0.20;;;;;;;13.36;100.00;99810.81;7395165;19;20014;-61
2022/05/18 00:13:54;;;;;;;0.10;0.10;;;;;;;13.34;100.00;99816.13;7394096;19;20014;-61
2022/05/18 00:16:22;;;;;;;0.68;0.30;;;;;;;13.32;100.00;99820.72;7393968;19;20014;-61
2022/05/18 00:18:49;;;;;;;0.20;0.20;;;;;;;13.29;100.00;99822.47;7393299;19;20023;-61
2022/05/18 00:21:15;;;;;;;0.30;0.30;;;;;;;13.28;100.00;99832.09;7392034;19;20015;-61
2022/05/18 00:23:41;;;;;;;0.30;0.20;;;;;;;13.24;100.00;99817.59;7392658;19;20030;-62
2022/05/18 00:26:08;;;;;;;0.20;0.13;;;;;;;13.10;100.00;99812.88;7392820;19;20397;-61
2022/05/18 00:28:35;;;;;;;0.65;0.30;;;;;;;13.05;100.00;99830.38;7393194;19;20033;-61
2022/05/18 00:31:02;;;;;;;0.40;0.40;;;;;;;12.98;100.00;99827.97;7392558;19;20025;-61
2022/05/18 00:33:29;;;;;;;0.20;0.20;;;;;;;12.96;100.00;99830.50;7393461;19;20413;-61
2022/05/18 00:35:57;;;;;;;0.20;0.20;;;;;;;12.93;100.00;99840.63;7395816;19;20038;-61
2022/05/18 00:38:23;;;;;;;0.20;0.20;;;;;;;12.90;100.00;99840.84;7392103;19;20743;-61
2022/05/18 00:40:51;;;;;;;0.22;0.22;;;;;;;12.88;100.00;99843.38;7391112;19;20035;-61
2022/05/18 00:43:30;;;;;;;0.20;0.20;;;;;;;12.87;100.00;99847.41;7392133;19;20011;-61
2022/05/18 00:45:58;;;;;;;0.43;0.38;;;;;;;12.81;100.00;99846.59;7394018;19;20015;-61
2022/05/18 00:48:24;;;;;;;1.00;0.63;;;;;;;12.79;100.00;99852.69;7392590;19;20051;-61
2022/05/18 00:50:53;;;;;;;3.20;0.57;;;;;;;12.78;100.00;99861.53;7391952;19;20014;-61
2022/05/18 00:53:24;;;;;;;0.65;0.43;;;;;;;12.73;100.00;99853.88;7392531;19;20038;-61
2022/05/18 00:55:58;;;;;;;0.10;0.10;;;;;;;12.71;100.00;99859.19;7391982;19;20015;-61
2022/05/18 00:58:27;;;;;;;0.52;0.32;;;;;;;12.65;100.00;99858.31;7391862;19;20463;-61
2022/05/18 01:00:54;;;;;;;0.20;0.20;;;;;;;12.62;100.00;99848.16;7390502;19;20010;-61
2022/05/18 01:03:24;;;;;;;0.17;0.17;;;;;;;12.54;100.00;99858.22;7390679;19;20006;-61
2022/05/18 01:06:08;;;;;;;0.20;0.20;;;;;;;12.51;100.00;99854.38;7394580;19;20018;-61
2022/05/18 01:08:46;;;;;;;0.40;0.13;;;;;;;12.52;100.00;99857.91;7390558;19;20018;-61
2022/05/18 01:11:13;;;;;;;0.30;0.30;;;;;;;12.49;100.00;99861.69;7392188;19;20124;-61
2022/05/18 01:13:39;;;;;;;2.28;0.65;;;;;;;12.45;100.00;99861.88;7391381;19;20644;-61
2022/05/18 01:16:06;;;;;;;0.15;0.15;;;;;;;12.39;100.00;99861.06;7389065;19;20014;-61
2022/05/18 01:18:32;;;;;;;0.32;0.10;;;;;;;12.37;100.00;99865.59;7391541;19;20022;-61
2022/05/18 01:20:58;;;;;;;0.22;0.22;;;;;;;12.32;100.00;99863.50;7390201;19;20070;-61
2022/05/18 01:23:48;;;;;;;1.00;0.65;;;;;;;12.36;100.00;99858.47;7390921;19;20066;-61
2022/05/18 01:26:39;;;;;;;0.10;0.10;;;;;;;12.37;100.00;99855.19;7391184;19;20015;-61
2022/05/18 01:29:06;;;;;;;0.20;0.20;;;;;;;12.39;100.00;99851.94;7391288;19;20024;-61
2022/05/18 01:32:00;;;;;;;0.10;0.10;;;;;;;12.45;100.00;99853.50;7392970;19;20010;-61
2022/05/18 01:34:30;;;;;;;2.15;0.50;;;;;;;12.33;100.00;99853.84;7389436;19;20070;-60
2022/05/18 01:36:56;;;;;;;0.22;0.22;;;;;;;12.34;100.00;99861.75;7389686;19;20010;-61
2022/05/18 01:39:31;;;;;;;0.10;0.10;;;;;;;12.23;100.00;99866.41;7390627;19;20011;-61
2022/05/18 01:42:29;;;;;;;0.10;0.10;;;;;;;12.13;100.00;99869.34;7392991;19;20332;-61
2022/05/18 01:44:55;;;;;;;1.10;0.35;;;;;;;12.12;100.00;99867.03;7389831;19;20386;-61
2022/05/18 01:47:22;;;;;;;0.20;0.20;;;;;;;12.06;100.00;99869.72;7394319;19;20030;-61
2022/05/18 01:49:50;;;;;;;0.20;0.20;;;;;;;12.12;100.00;99875.41;7390613;19;20006;-60
2022/05/18 01:52:17;;;;;;;0.73;0.50;;;;;;;12.03;100.00;99870.72;7393311;19;20048;-61
2022/05/18 01:54:45;;;;;;;0.45;0.22;;;;;;;12.11;100.00;99873.84;7389642;19;20018;-61
2022/05/18 01:57:12;;;;;;;0.63;0.20;;;;;;;12.23;100.00;99872.00;7389313;19;20015;-61
2022/05/18 01:59:39;;;;;;;0.20;0.20;;;;;;;12.18;100.00;99871.44;7389402;19;20112;-61
2022/05/18 02:02:10;;;;;;;0.20;0.20;;;;;;;12.19;100.00;99878.56;7392967;19;20094;-62
2022/05/18 02:04:37;;;;;;;0.47;0.47;;;;;;;12.15;100.00;99878.00;7390539;19;20020;-61
2022/05/18 02:07:03;;;;;;;0.20;0.20;;;;;;;12.15;100.00;99878.00;7389138;19;20014;-61
2022/05/18 02:09:30;;;;;;;0.32;0.30;;;;;;;12.13;100.00;99880.50;7388197;19;20028;-61
2022/05/18 02:11:57;;;;;;;0.10;0.10;;;;;;;12.08;100.00;99875.59;7391536;19;20018;-61
2022/05/18 02:14:23;;;;;;;0.52;0.35;;;;;;;12.08;100.00;99883.22;7388586;19;20711;-61
2022/05/18 02:16:50;;;;;;;0.30;0.30;;;;;;;11.99;100.00;99886.91;7388570;19;20011;-61
2022/05/18 02:19:17;;;;;;;0.52;0.40;;;;;;;11.96;100.00;99887.84;7390049;19;20019;-60
2022/05/18 02:21:43;;;;;;;0.85;0.20;;;;;;;12.02;100.00;99891.50;7395192;19;20014;-61
2022/05/18 02:24:10;;;;;;;0.50;0.22;;;;;;;12.02;100.00;99897.06;7395896;19;20018;-61
2022/05/18 02:26:38;;;;;;;0.20;0.20;;;;;;;12.03;100.00;99898.63;7396667;19;20014;-61
2022/05/18 02:29:04;;;;;;;0.43;0.43;;;;;;;11.97;100.00;99897.78;7396679;19;20011;-60
2022/05/18 02:31:30;;;;;;;3.92;0.45;;;;;;;11.92;100.00;99906.03;7397262;19;20574;-60
2022/05/18 02:33:57;;;;;;;0.35;0.35;;;;;;;11.84;100.00;99902.91;7396543;19;20015;-60
2022/05/18 02:36:23;;;;;;;0.10;0.10;;;;;;;11.69;100.00;99902.16;7401760;19;20020;-60
2022/05/18 02:38:50;;;;;;;2.13;0.47;;;;;;;11.57;100.00;99905.94;7396718;19;20075;-60
2022/05/18 02:41:18;;;;;;;0.22;0.20;;;;;;;11.58;100.00;99904.72;7395062;19;20471;-61
2022/05/18 02:43:45;;;;;;;0.77;0.40;;;;;;;11.64;100.00;99905.56;7396840;19;20739;-61
2022/05/18 02:46:18;;;;;;;0.73;0.38;;;;;;;11.75;100.00;99916.16;7396178;19;20034;-60
2022/05/18 02:48:46;;;;;;;1.80;1.02;;;;;;;11.73;100.00;99916.66;7396005;19;20500;-60
2022/05/18 02:51:14;;;;;;;0.20;0.20;;;;;;;11.77;100.00;99914.44;7394836;19;20090;-60
2022/05/18 02:53:40;;;;;;;0.52;0.30;;;;;;;11.70;100.00;99922.41;7396506;19;20025;-60
2022/05/18 02:56:08;;;;;;;0.20;0.17;;;;;;;11.68;100.00;99922.91;7396679;19;20010;-60
2022/05/18 02:58:37;;;;;;;3.70;0.40;;;;;;;11.74;100.00;99928.56;7395549;19;20011;-60
2022/05/18 03:01:06;;;;;;;0.20;0.20;;;;;;;11.67;100.00;99926.97;7394396;19;20511;-60
2022/05/18 03:03:32;;;;;;;0.45;0.43;;;;;;;11.60;100.00;99940.47;7394606;19;20049;-61
2022/05/18 03:05:58;;;;;;;0.13;0.13;;;;;;;11.52;100.00;99931.72;7399884;19;20007;-60
2022/05/18 03:08:24;;;;;;;0.85;0.28;;;;;;;11.52;100.00;99942.88;7395109;19;20015;-60
2022/05/18 03:10:50;;;;;;;0.77;0.28;;;;;;;11.47;100.00;99940.78;7395323;19;20034;-61
2022/05/18 03:13:16;;;;;;;0.45;0.40;;;;;;;11.41;100.00;99937.84;7395671;19;20449;-60
2022/05/18 03:15:42;;;;;;;0.43;0.43;;;;;;;11.32;100.00;99942.78;7396742;19;20066;-60
2022/05/18 03:18:09;;;;;;;0.50;0.50;;;;;;;11.21;100.00;99948.13;7395697;19;20015;-60
2022/05/18 03:23:35;;;;;;;0.25;0.25;;;;;;;11.25;100.00;99948.72;7395020;19;20015;-60
2022/05/18 03:26:06;;;;;;;1.27;0.55;;;;;;;11.19;100.00;99956.97;7393439;19;20014;-60
2022/05/18 03:28:33;;;;;;;0.30;0.30;;;;;;;11.14;100.00;99957.63;7395479;19;20015;-61
2022/05/18 03:30:59;;;;;;;0.40;0.40;;;;;;;11.12;100.00;99965.69;7394599;19;20066;-60
2022/05/18 03:33:26;;;;;;;0.85;0.20;;;;;;;11.12;100.00;99976.06;7395039;19;20014;-60
2022/05/18 03:35:52;;;;;;;0.22;0.22;;;;;;;11.05;100.00;99970.84;7398563;19;20011;-60
2022/05/18 03:38:20;;;;;;;0.30;0.30;;;;;;;11.10;100.00;99973.00;7394284;19;20018;-60
2022/05/18 03:40:47;;;;;;;1.05;0.63;;;;;;;11.10;100.00;99970.97;7392881;19;20018;-60
2022/05/18 03:43:13;;;;;;;0.57;0.30;;;;;;;11.13;100.00;99977.63;7393616;19;20502;-60
2022/05/18 03:45:40;;;;;;;0.15;0.15;;;;;;;11.12;100.00;99981.66;7395032;19;20006;-60
2022/05/18 03:48:08;;;;;;;1.50;0.45;;;;;;;11.05;100.00;99973.63;7393955;19;20015;-60
2022/05/18 03:50:37;;;;;;;1.45;1.02;;;;;;;11.04;100.00;99974.91;7394646;19;20011;-60
2022/05/18 03:53:03;;;;;;;5.75;0.28;;;;;;;10.99;100.00;99967.97;7398685;19;20018;-60
2022/05/18 03:55:30;;;;;;;0.20;0.20;;;;;;;11.13;100.00;99977.63;7395203;19;20007;-60
2022/05/18 03:57:56;;;;;;;0.20;0.20;;;;;;;11.10;100.00;99978.56;7392391;19;20031;-60
2022/05/18 04:00:23;;;;;;;0.15;0.15;;;;;;;11.10;100.00;99984.13;7392044;19;20094;-61
2022/05/18 04:02:49;;;;;;;2.83;0.47;;;;;;;11.12;100.00;99992.78;7392898;19;20419;-61
2022/05/18 04:05:18;;;;;;;0.52;0.52;;;;;;;11.17;100.00;99990.13;7396118;19;20030;-60
2022/05/18 04:07:44;;;;;;;0.90;0.45;;;;;;;11.17;100.00;99994.94;7394138;19;20011;-60
2022/05/18 04:10:10;;;;;;;0.10;0.10;;;;;;;11.14;100.00;99999.44;7394053;19;20015;-60
2022/05/18 04:12:36;;;;;;;0.47;0.38;;;;;;;11.09;100.00;99994.50;7397206;19;20545;-60
2022/05/18 04:15:04;;;;;;;2.38;0.63;;;;;;;11.09;100.00;99993.72;7393790;19;20018;-60
2022/05/18 04:17:30;;;;;;;0.63;0.20;;;;;;;11.14;100.00;99998.66;7392710;19;20014;-60
2022/05/18 04:19:56;;;;;;;0.50;0.50;;;;;;;11.06;100.00;100001.06;7393317;19;20014;-60
2022/05/18 04:22:25;;;;;;;0.40;0.40;;;;;;;11.06;100.00;99994.69;7395704;19;20038;-61
2022/05/18 04:24:52;;;;;;;3.10;0.60;;;;;;;10.96;100.00;99991.19;7393901;19;20010;-60
2022/05/18 04:27:18;;;;;;;8.23;0.65;;;;;;;11.01;100.00;99993.34;7393345;19;20011;-60
2022/05/18 04:29:44;;;;;;;0.43;0.20;;;;;;;11.08;100.00;99986.63;7393052;19;20018;-60
2022/05/18 04:32:10;;;;;;;0.22;0.20;;;;;;;11.10;100.00;99984.13;7395763;19;20105;-60
2022/05/18 04:34:36;;;;;;;0.77;0.43;;;;;;;11.14;100.00;99991.06;7394078;19;20364;-61
2022/05/18 04:37:03;;;;;;;0.28;0.28;;;;;;;11.17;100.00;100000.50;7392271;19;20343;-60
2022/05/18 04:39:29;;;;;;;1.10;0.70;;;;;;;11.22;100.00;99997.03;7391482;19;20078;-60
2022/05/18 04:41:55;;;;;;;1.23;0.32;;;;;;;11.35;100.00;99994.78;7394560;19;20014;-60
2022/05/18 04:44:21;;;;;;;0.65;0.30;;;;;;;11.34;100.00;100002.38;7391370;19;20011;-60
2022/05/18 04:46:47;;;;;;;0.40;0.40;;;;;;;11.38;100.00;100002.19;7395222;19;20014;-60
2022/05/18 04:49:13;;;;;;;0.32;0.32;;;;;;;11.43;100.00;100007.13;7392950;19;20015;-60
2022/05/18 04:51:40;;;;;;;0.30;0.30;;;;;;;11.50;100.00;100003.19;7394027;19;20022;-60
2022/05/18 04:54:06;;;;;;;0.30;0.28;;;;;;;11.57;100.00;100009.16;7391926;19;20034;-60
2022/05/18 04:56:32;;;;;;;0.55;0.20;;;;;;;11.59;100.00;100003.84;7391373;19;20021;-60
2022/05/18 04:58:58;;;;;;;0.50;0.25;;;;;;;11.60;100.00;100004.63;7391491;19;20017;-60
2022/05/18 05:01:25;;;;;;;0.22;0.22;;;;;;;11.64;100.00;100006.00;7389833;19;20010;-60
2022/05/18 05:03:51;;;;;;;0.13;0.13;;;;;;;11.79;100.00;100006.81;7392999;19;20561;-60
2022/05/18 05:06:17;;;;;;;0.82;0.55;;;;;;;11.85;100.00;100010.47;7396682;19;20382;-60
2022/05/18 05:08:43;;;;;;;0.47;0.47;;;;;;;11.91;100.00;100005.00;7391817;19;20516;-60
2022/05/18 05:11:10;;;;;;;0.35;0.30;;;;;;;11.96;100.00;100002.28;7392112;19;20536;-60
2022/05/18 05:13:36;;;;;;;1.13;0.52;;;;;;;12.00;100.00;100011.22;7388818;19;20010;-59
2022/05/18 05:16:08;;;;;;;0.90;0.40;;;;;;;12.07;100.00;100016.44;7390587;19;20024;-60
2022/05/18 05:18:35;;;;;;;0.57;0.40;;;;;;;12.17;100.00;100017.13;7391518;19;20017;-59
2022/05/18 05:21:02;;;;;;;0.10;0.10;;;;;;;12.32;100.00;100014.31;7389838;19;20481;-59
2022/05/18 05:23:29;;;;;;;1.40;1.08;;;;;;;12.44;100.00;100016.00;7389636;19;20015;-60
2022/05/18 05:25:56;;;;;;;1.40;0.60;;;;;;;12.49;100.00;100027.28;7390602;19;20020;-60
2022/05/18 05:28:22;;;;;;;0.40;0.40;;;;;;;12.60;100.00;100029.47;7390382;19;20010;-60
2022/05/18 05:30:49;;;;;;;0.30;0.30;;;;;;;12.73;100.00;100027.88;7390732;19;20070;-60
2022/05/18 05:33:15;;;;;;;1.58;0.20;;;;;;;12.84;100.00;100030.09;7390772;19;20007;-60
2022/05/18 05:35:41;;;;;;;0.88;0.60;;;;;;;13.00;100.00;100039.94;7394316;19;20033;-60
2022/05/18 05:38:09;;;;;;;1.35;0.95;;;;;;;13.14;100.00;100034.34;7391052;19;20085;-60
2022/05/18 05:40:37;;;;;;;0.73;0.40;;;;;;;13.25;100.00;100031.69;7388759;19;20015;-60
2022/05/18 05:43:07;;;;;;;4.40;0.50;;;;;;;13.32;100.00;100042.44;7395135;19;20861;-60
2022/05/18 05:45:33;;;;;;;0.43;0.43;;;;;;;13.35;100.00;100044.25;7390509;19;20092;-60
2022/05/18 05:47:59;;;;;;;4.15;0.75;;;;;;;13.48;100.00;100050.28;7390106;19;20011;-60
2022/05/18 05:50:26;;;;;;;0.40;0.40;;;;;;;13.57;100.00;100055.72;7389212;19;20010;-60
2022/05/18 05:52:53;;;;;;;1.10;0.30;;;;;;;13.64;100.00;100060.88;7394059;19;20015;-60
2022/05/18 05:55:20;;;;;;;0.75;0.73;;;;;;;13.75;100.00;100048.28;7387736;19;20010;-60
2022/05/18 05:57:46;;;;;;;2.08;0.82;;;;;;;13.79;100.00;100060.03;7389770;19;20030;-60
2022/05/18 06:00:13;;;;;;;0.10;0.10;;;;;;;13.83;100.00;100063.38;7389724;19;20011;-60
2022/05/18 06:02:39;;;;;;;0.60;0.28;;;;;;;14.01;100.00;100075.00;7392709;19;20016;-61
2022/05/18 06:05:06;;;;;;;0.20;0.20;;;;;;;14.06;100.00;100068.72;7391638;19;20046;-60
2022/05/18 06:07:32;;;;;;;0.50;0.45;;;;;;;14.14;100.00;100075.41;7388587;19;20014;-60
2022/05/18 06:09:58;;;;;;;0.60;0.60;;;;;;;14.19;100.00;100071.13;7388731;19;20010;-60
2022/05/18 06:12:25;;;;;;;0.50;0.35;;;;;;;14.23;100.00;100072.44;7391311;19;20472;-60
2022/05/18 06:14:51;;;;;;;4.35;1.27;;;;;;;14.24;100.00;100079.59;7388487;19;20017;-55
2022/05/18 06:17:17;;;;;;;0.75;0.75;;;;;;;14.36;100.00;100069.25;7389426;19;20022;-54
2022/05/18 06:19:44;;;;;;;4.05;0.88;;;;;;;14.47;100.00;100080.56;7389033;19;20070;-54
2022/05/18 06:22:10;;;;;;;5.70;0.90;;;;;;;14.51;100.00;100075.50;7391360;19;20021;-54
2022/05/18 06:24:36;;;;;;;2.05;0.82;;;;;;;14.60;100.00;100072.53;7388016;19;20096;-54
2022/05/18 06:27:03;;;;;;;0.30;0.30;;;;;;;14.58;100.00;100072.25;7388791;19;20039;-54
2022/05/18 06:29:30;;;;;;;0.63;0.57;;;;;;;14.70;100.00;100076.69;7388915;19;20018;-54
2022/05/18 06:31:56;;;;;;;1.17;0.90;;;;;;;14.65;100.00;100074.59;7390892;19;20011;-54
2022/05/18 06:34:23;;;;;;;0.90;0.63;;;;;;;14.67;100.00;100079.72;7390245;19;20042;-54
2022/05/18 06:36:49;;;;;;;5.28;0.40;;;;;;;14.77;100.00;100076.22;7387790;19;20577;-54
2022/05/18 06:39:18;;;;;;;7.88;0.45;;;;;;;14.72;100.00;100076.97;7389813;19;20027;-54
2022/05/18 06:41:46;;;;;;;4.40;0.40;;;;;;;14.77;100.00;100073.41;7388693;19;20007;-54
2022/05/18 06:44:12;;;;;;;6.88;0.77;;;;;;;14.85;100.00;100077.31;7388811;19;20121;-54
2022/05/18 06:46:39;;;;;;;1.30;0.52;;;;;;;14.77;100.00;100087.44;7391920;19;20010;-54
2022/05/18 06:49:08;;;;;;;13.00;0.50;;;;;;;15.07;100.00;100083.03;7388362;19;20471;-54
2022/05/18 06:51:38;;;;;;;0.38;0.22;;;;;;;14.97;100.00;100081.72;7387574;19;20356;-54
2022/05/18 06:54:05;;;;;;;0.30;0.10;;;;;;;15.00;100.00;100080.72;7386896;19;20006;-54
2022/05/18 06:56:35;;;;;;;6.75;0.30;;;;;;;15.12;100.00;100082.31;7388490;19;20014;-54
2022/05/18 06:59:02;;;;;;;1.75;0.50;;;;;;;15.17;100.00;100084.38;7387948;19;20078;-54
2022/05/18 07:01:29;;;;;;;0.22;0.22;;;;;;;15.15;100.00;100078.53;7386893;19;20003;-54
2022/05/18 07:03:56;;;;;;;5.05;0.70;;;;;;;15.17;100.00;100080.81;7386654;19;20011;-54
2022/05/18 07:06:24;;;;;;;4.72;0.57;;;;;;;15.22;100.00;100085.69;7394553;19;20786;-54
2022/05/18 07:08:51;;;;;;;3.28;1.15;;;;;;;15.25;100.00;100092.31;7394984;19;20372;-54
2022/05/18 07:11:19;;;;;;;0.98;0.43;;;;;;;15.31;100.00;100101.56;7395947;19;20121;-54
2022/05/18 07:13:46;;;;;;;5.63;0.98;;;;;;;15.39;100.00;100102.59;7394330;19;20018;-59
2022/05/18 07:16:16;;;;;;;4.78;0.43;;;;;;;15.52;100.00;100106.53;7394838;19;20074;-55
2022/05/18 07:18:42;;;;;;;0.95;0.70;;;;;;;15.56;100.00;100107.06;7395514;19;20037;-56
2022/05/18 07:21:08;;;;;;;4.80;0.68;;;;;;;15.63;100.00;100106.59;7392569;19;20021;-57
2022/05/18 07:23:34;;;;;;;0.60;0.28;;;;;;;15.62;100.00;100109.88;7394508;19;20015;-56
2022/05/18 07:26:01;;;;;;;1.00;0.22;;;;;;;15.69;100.00;100115.03;7393317;19;20017;-56
2022/05/18 07:28:27;;;;;;;5.15;0.70;;;;;;;15.64;100.00;100107.34;7394267;19;20011;-56
2022/05/18 07:30:54;;;;;;;0.47;0.25;;;;;;;15.64;100.00;100110.16;7395611;19;20021;-56
2022/05/18 07:33:22;;;;;;;2.97;0.43;;;;;;;15.65;100.00;100118.09;7396677;19;20014;-55
2022/05/18 07:35:52;;;;;;;2.60;0.52;;;;;;;15.66;100.00;100127.25;7396768;19;20462;-56
2022/05/18 07:38:20;;;;;;;2.55;0.20;;;;;;;15.68;100.00;100122.69;7393073;19;20014;-56
2022/05/18 07:40:48;;;;;;;0.82;0.30;;;;;;;15.73;100.00;100115.53;7391172;19;20027;-56
2022/05/18 07:43:15;;;;;;;0.68;0.30;;;;;;;15.84;100.00;100129.63;7394004;19;20539;-56
2022/05/18 07:45:41;;;;;;;1.88;0.10;;;;;;;16.00;100.00;100128.94;7393740;19;20099;-57
2022/05/18 07:48:07;;;;;;;0.50;0.35;;;;;;;16.06;100.00;100126.91;7394271;19;20034;-56
2022/05/18 07:50:34;;;;;;;0.38;0.38;;;;;;;16.18;100.00;100117.22;7393084;19;20006;-57
2022/05/18 07:53:00;;;;;;;2.03;0.43;;;;;;;16.26;100.00;100121.09;7397499;19;20566;-56
2022/05/18 07:55:27;;;;;;;0.70;0.20;;;;;;;16.32;100.00;100126.69;7394684;19;20014;-56
2022/05/18 07:57:54;;;;;;;0.30;0.20;;;;;;;16.33;100.00;100117.00;7392094;19;20500;-56
2022/05/18 08:00:23;;;;;;;3.53;0.47;;;;;;;16.46;100.00;100126.47;7392161;19;20439;-57
2022/05/18 08:02:50;;;;;;;1.30;0.20;;;;;;;16.47;100.00;100128.00;7396951;19;20030;-57
2022/05/18 08:05:16;;;;;;;5.68;0.57;;;;;;;16.41;100.00;100124.44;7396550;19;20010;-56
2022/05/18 08:07:47;;;;;;;0.38;0.20;;;;;;;16.52;100.00;100135.69;7393653;19;20121;-57
2022/05/18 08:15:49;;;;;;;10.63;1.00;;;;;;;17.03;100.00;100128.78;7392804;19;20126;-56
2022/05/18 08:18:17;;;;;;;0.88;0.20;;;;;;;17.28;100.00;100127.72;7391521;19;20025;-56
2022/05/18 08:20:44;;;;;;;2.03;0.20;;;;;;;17.26;100.00;100140.81;7391796;19;20021;-57
2022/05/18 08:23:11;;;;;;;0.57;0.25;;;;;;;17.08;100.00;100142.09;7392199;19;20437;-56
2022/05/18 08:25:38;;;;;;;0.70;0.40;;;;;;;17.18;100.00;100134.13;7391110;19;20014;-56
2022/05/18 08:28:05;;;;;;;1.02;0.38;;;;;;;17.36;100.00;100131.56;7392610;19;20015;-57
2022/05/18 08:30:32;;;;;;;0.50;0.35;;;;;;;17.49;100.00;100139.44;7392407;19;20466;-57
2022/05/18 08:32:59;;;;;;;2.15;0.28;;;;;;;17.48;100.00;100146.34;7396430;19;20112;-57
2022/05/18 08:35:27;;;;;;;1.80;0.70;;;;;;;17.58;100.00;100139.22;7393966;19;20006;-56
2022/05/18 08:37:55;;;;;;;5.35;0.82;;;;;;;17.62;100.00;100145.34;7392011;19;20014;-55
2022/05/18 08:40:30;;;;;;;0.10;0.10;;;;;;;17.63;100.00;100143.28;7395126;19;20063;-56
2022/05/18 08:42:58;;;;;;;2.88;1.27;;;;;;;17.63;100.00;100134.84;7392472;19;20095;-57
2022/05/18 08:45:29;;;;;;;0.10;0.10;;;;;;;17.71;100.00;100142.25;7391282;19;20014;-56
2022/05/18 08:48:05;;;;;;;2.15;0.57;;;;;;;17.84;100.00;100150.13;7390696;19;20452;-56
2022/05/18 08:50:33;;;;;;;6.35;0.40;;;;;;;17.82;100.00;100149.88;7391259;19;20011;-57
2022/05/18 08:53:41;;;;;;;7.88;0.85;;;;;;;17.78;100.00;100158.56;7393822;19;20010;-57
2022/05/18 08:56:24;;;;;;;1.70;0.45;;;;;;;17.89;100.00;100152.91;7387080;19;20046;-57
2022/05/18 08:58:52;;;;;;;0.65;0.22;;;;;;;17.96;100.00;100146.72;7387797;19;20018;-56
2022/05/18 09:01:42;;;;;;;0.75;0.47;;;;;;;18.18;100.00;100140.97;7389095;19;20462;-57
2022/05/18 09:04:16;;;;;;;1.00;0.28;;;;;;;18.33;100.00;100149.09;7391747;19;20014;-57
2022/05/18 09:06:48;;;;;;;10.70;0.68;;;;;;;18.52;100.00;100154.88;7391620;19;20011;-56
2022/05/18 09:12:07;;;;;;;0.85;0.20;;;;;;;19.21;100.00;100161.00;7393157;19;20014;-56
2022/05/18 09:14:38;;;;;;;3.97;0.32;;;;;;;19.29;100.00;100157.06;7387767;19;20038;-57
2022/05/18 09:17:42;;;;;;;2.53;0.32;;;;;;;19.37;100.00;100155.22;7388856;19;20381;-56
2022/05/18 09:20:54;;;;;;;6.13;0.40;;;;;;;19.59;100.00;100163.47;7387285;19;20015;-56
2022/05/18 09:23:42;;;;;;;0.85;0.63;;;;;;;19.97;100.00;100169.94;7386552;19;20336;-56
2022/05/18 09:26:08;;;;;;;4.40;0.15;;;;;;;20.19;100.00;100174.53;7385937;19;20049;-56
2022/05/18 09:28:58;;;;;;;0.00;0.00;;;;;;;20.34;100.00;100166.38;7387257;19;20377;-56
2022/05/18 09:31:58;;;;;;;0.55;0.25;;;;;;;20.44;100.00;100163.94;7389818;19;20429;-56
2022/05/18 09:34:31;;;;;;;3.07;0.30;;;;;;;20.59;100.00;100167.84;7391091;19;20015;-56
2022/05/18 09:37:07;;;;;;;2.15;0.63;;;;;;;20.72;100.00;100167.13;7390657;19;20018;-56
2022/05/18 09:39:41;;;;;;;7.88;0.30;;;;;;;20.58;100.00;100159.88;7390923;19;20186;-56
2022/05/18 09:42:20;;;;;;;0.10;0.00;;;;;;;20.69;100.00;100162.53;7392503;19;20010;-57
2022/05/18 09:44:50;;;;;;;1.90;0.20;;;;;;;20.59;100.00;100167.06;7386005;19;20018;-87
2022/05/18 09:47:19;;;;;;;;;;;;;;;20.70;100.00;100162.00;7384765;19;20119;-87
2022/05/18 09:49:51;;;;;;;5.65;0.38;;;;;;;20.57;100.00;100159.13;7377588;19;19927;-85
2022/05/18 09:52:21;;;;;;;8.50;0.20;;;;;;;20.33;100.00;100159.22;7385564;19;20015;-86
2022/05/18 09:54:55;;;;;;;2.50;0.10;;;;;;;20.22;100.00;100156.53;7383780;19;20018;-86
2022/05/18 09:57:48;;;;;;;2.63;0.28;;;;;;;20.37;100.00;100145.53;7384169;19;20364;-86
2022/05/18 10:00:21;;;;;;;2.17;0.30;;;;;;;20.52;100.00;100151.47;7383671;19;20035;-86
2022/05/18 10:07:27;;;;;;;0.95;0.20;;;;;;;20.71;100.00;100146.53;7391414;19;20010;-87
2022/05/18 10:08:43;;;;;;;5.55;0.98;;;;;;;20.64;100.00;100141.50;7386005;19;20489;-85
2022/05/18 10:11:22;;;;;;;1.40;0.13;;;;;;;20.70;100.00;100145.03;7387184;19;20026;-88
2022/05/18 10:14:08;;;;;;;0.20;0.20;;;;;;;20.77;100.00;100161.38;7385124;19;20030;-88
2022/05/18 10:16:41;;;;;;;1.85;0.22;;;;;;;20.67;100.00;100157.41;7388900;19;20082;-86
2022/05/18 10:19:21;;;;;;;4.10;0.95;;;;;;;20.64;100.00;100152.81;7388399;19;20420;-88
2022/05/18 10:22:01;;;;;;;7.43;0.35;;;;;;;20.71;100.00;100145.78;7386644;19;20018;-88
2022/05/18 10:24:46;;;;;;;1.20;0.57;;;;;;;20.77;100.00;100132.31;7385515;19;20385;-87
2022/05/18 10:27:15;;;;;;;3.17;0.55;;;;;;;20.68;100.00;100136.28;7384451;19;20040;-87
2022/05/18 10:30:08;;;;;;;8.95;0.85;;;;;;;20.62;100.00;100127.13;7385770;19;20477;-88
2022/05/18 10:32:37;;;;;;;2.35;0.20;;;;;;;20.76;100.00;100131.53;7390774;19;20397;-87
2022/05/18 10:35:04;;;;;;;2.63;0.47;;;;;;;21.11;100.00;100139.69;7390750;19;20090;-86
2022/05/18 10:37:32;;;;;;;0.75;0.35;;;;;;;21.19;100.00;100139.06;7390522;19;20028;-87
2022/05/18 10:40:11;;;;;;;0.43;0.20;;;;;;;21.08;100.00;100129.47;7390858;19;20007;-86
2022/05/18 10:42:48;;;;;;;0.68;0.30;;;;;;;21.23;100.00;100128.94;7399460;19;20029;-86
2022/05/18 10:45:21;;;;;;;2.70;0.10;;;;;;;21.26;100.00;100127.09;7394263;19;20027;-87
2022/05/18 10:47:50;;;;;;;1.95;0.10;;;;;;;20.88;100.00;100127.22;7394562;19;20029;-86
2022/05/18 10:50:32;;;;;;;0.73;0.20;;;;;;;20.82;100.00;100123.72;7395746;19;20039;-85
2022/05/18 10:53:16;;;;;;;14.30;0.98;;;;;;;20.91;100.00;100126.16;7400241;19;20021;-87
2022/05/18 10:55:57;;;;;;;1.73;0.20;;;;;;;21.00;100.00;100117.25;7401596;19;20022;-87
2022/05/18 10:58:34;;;;;;;0.20;0.10;;;;;;;21.24;100.00;100118.38;7401115;19;20022;-87
2022/05/18 11:01:22;;;;;;;0.82;0.32;;;;;;;21.31;100.00;100120.56;7399609;19;20014;-86
2022/05/18 11:03:58;;;;;;;3.67;0.77;;;;;;;21.31;100.00;100112.06;7396963;19;20112;-87
2022/05/18 11:06:37;;;;;;;2.08;0.30;;;;;;;21.31;100.00;100109.25;7399637;19;20011;-87
2022/05/18 11:09:08;;;;;;;3.58;0.28;;;;;;;21.32;100.00;100105.84;7399198;19;20017;-88
2022/05/18 11:11:50;;;;;;;3.60;0.32;;;;;;;21.55;100.00;100114.69;7400757;19;20031;-88
2022/05/18 11:14:45;;;;;;;0.60;0.40;;;;;;;21.72;100.00;100117.97;7397484;19;20074;-87
2022/05/18 11:17:30;;;;;;;0.32;0.15;;;;;;;21.87;100.00;100110.41;7399240;19;20464;-88
2022/05/18 11:20:28;;;;;;;0.40;0.20;;;;;;;21.98;100.00;100115.13;7397543;19;20034;-88
2022/05/18 11:23:10;;;;;;;5.93;0.35;;;;;;;21.89;100.00;100098.56;7403513;19;20033;-93
2022/05/18 11:26:14;;;;;;;2.53;0.60;;;;;;;21.80;100.00;100108.25;7397942;19;20464;-92
2022/05/18 11:29:08;;;;;;;2.95;1.08;;;;;;;21.92;100.00;100108.03;7399320;19;20041;-92
2022/05/18 11:32:11;;;;;;;3.03;0.50;;;;;;;21.77;100.00;100109.31;7400384;19;20440;-93
2022/05/18 11:34:46;;;;;;;1.58;0.50;;;;;;;21.57;100.00;100106.41;7399731;19;20018;-93
2022/05/18 11:37:37;;;;;;;3.95;0.75;;;;;;;21.77;100.00;100108.56;7400550;19;20020;-91
2022/05/18 11:40:39;;;;;;;4.45;0.68;;;;;;;21.96;100.00;100114.88;7399341;19;20527;-92
2022/05/18 11:43:25;;;;;;;0.55;0.20;;;;;;;22.24;100.00;100106.50;7404397;19;20496;-93
2022/05/18 11:46:07;;;;;;;0.20;0.17;;;;;;;22.34;100.00;100106.81;7403275;19;20010;-94
2022/05/18 11:48:58;;;;;;;9.40;0.73;;;;;;;22.21;100.00;100106.84;7399714;19;20468;-93
2022/05/18 11:51:40;;;;;;;2.15;0.35;;;;;;;22.26;100.00;100092.53;7400775;19;20022;-94